createdAt,value
2022-10-18T00:02:28.218Z,15.75
2022-10-18T00:05:29.657Z,15.43
2022-10-18T00:08:31.095Z,16.92
2022-10-18T00:11:32.810Z,19.13
2022-10-18T00:14:34.200Z,17.17
2022-10-18T00:17:36.454Z,15.38
2022-10-18T00:20:37.975Z,15.95
2022-10-18T00:23:39.667Z,16.55
2022-10-18T00:26:41.066Z,17.77
2022-10-18T00:29:42.532Z,17.23
2022-10-18T00:32:43.993Z,17.00
2022-10-18T00:35:45.447Z,17.13
2022-10-18T00:38:47.741Z,16.63
2022-10-18T00:41:49.976Z,17.65
2022-10-18T00:44:51.353Z,18.02
2022-10-18T00:47:59.789Z,18.67
2022-10-18T00:51:01.262Z,17.25
2022-10-18T00:54:02.852Z,16.50
2022-10-18T00:57:06.001Z,16.83
2022-10-18T01:00:08.506Z,18.95
2022-10-18T01:03:09.984Z,16.48
2022-10-18T01:06:11.438Z,16.85
2022-10-18T01:09:32.137Z,16.88
2022-10-18T01:12:51.572Z,16.30
2022-10-18T01:16:20.978Z,15.32
2022-10-18T01:19:53.300Z,16.42
2022-10-18T01:23:08.757Z,15.18
2022-10-18T01:26:35.084Z,16.63
2022-10-18T01:29:48.449Z,15.40
2022-10-18T01:32:58.563Z,16.05
2022-10-18T01:36:23.169Z,16.83
2022-10-18T01:39:29.570Z,15.65
2022-10-18T01:42:31.789Z,16.65
2022-10-18T01:45:33.362Z,15.57
2022-10-18T01:48:35.814Z,15.55
2022-10-18T01:51:37.260Z,14.93
2022-10-18T01:54:44.317Z,14.95
2022-10-18T01:58:02.736Z,12.90
2022-10-18T02:01:17.489Z,14.13
2022-10-18T02:04:29.206Z,14.77
2022-10-18T02:07:42.419Z,14.52
2022-10-18T02:10:55.610Z,14.93
2022-10-18T02:14:03.270Z,14.65
2022-10-18T02:17:09.636Z,13.52
2022-10-18T02:20:13.523Z,12.32
2022-10-18T02:23:21.100Z,12.45
2022-10-18T02:26:22.652Z,12.50
2022-10-18T02:29:24.173Z,12.32
2022-10-18T02:32:40.753Z,12.27
2022-10-18T02:35:49.555Z,12.43
2022-10-18T02:38:56.332Z,12.07
2022-10-18T02:41:58.124Z,11.32
2022-10-18T02:44:59.525Z,11.95
2022-10-18T02:48:00.935Z,12.13
2022-10-18T02:51:02.328Z,12.32
2022-10-18T02:54:03.833Z,10.75
2022-10-18T02:57:05.236Z,11.45
2022-10-18T03:00:07.859Z,12.45
2022-10-18T03:03:09.295Z,11.73
2022-10-18T03:06:10.693Z,11.10
2022-10-18T03:09:12.128Z,11.23
2022-10-18T03:12:13.578Z,11.40
2022-10-18T03:15:14.978Z,12.15
2022-10-18T03:18:16.398Z,11.90
2022-10-18T03:21:17.795Z,12.43
2022-10-18T03:24:19.217Z,12.88
2022-10-18T03:27:20.629Z,12.35
2022-10-18T03:30:22.039Z,12.25
2022-10-18T03:33:23.418Z,11.40
2022-10-18T03:36:24.883Z,12.88
2022-10-18T03:39:26.270Z,14.13
2022-10-18T03:42:27.695Z,12.95
2022-10-18T03:45:31.299Z,12.95
2022-10-18T03:48:33.132Z,14.40
2022-10-18T03:51:34.549Z,15.27
2022-10-18T03:54:35.954Z,14.15
2022-10-18T03:57:37.374Z,15.48
2022-10-18T04:00:38.787Z,14.82
2022-10-18T04:03:40.181Z,16.20
2022-10-18T04:06:41.795Z,15.43
2022-10-18T04:09:43.200Z,15.30
2022-10-18T04:12:44.573Z,16.48
2022-10-18T04:15:46.012Z,15.70
2022-10-18T04:18:47.444Z,16.77
2022-10-18T04:21:48.839Z,16.65
2022-10-18T04:24:50.244Z,14.88
2022-10-18T04:27:51.689Z,15.43
2022-10-18T04:30:53.574Z,15.55
2022-10-18T04:33:55.053Z,15.20
2022-10-18T04:36:56.452Z,16.02
2022-10-18T04:39:57.870Z,15.90
2022-10-18T04:42:59.311Z,16.50
2022-10-18T04:46:00.772Z,16.20
2022-10-18T04:49:02.422Z,16.80
2022-10-18T04:52:04.319Z,16.77
2022-10-18T04:55:06.208Z,16.15
2022-10-18T04:58:07.624Z,15.38
2022-10-18T05:01:09.056Z,16.08
2022-10-18T05:04:10.565Z,18.98
2022-10-18T05:07:12.012Z,18.33
2022-10-18T05:10:13.414Z,18.60
2022-10-18T05:13:14.924Z,19.13
2022-10-18T05:16:16.326Z,18.63
2022-10-18T05:19:17.730Z,17.63
2022-10-18T05:22:19.216Z,17.95
2022-10-18T05:25:20.633Z,16.80
2022-10-18T05:28:38.778Z,16.48
2022-10-18T05:31:41.379Z,15.02
2022-10-18T05:34:42.797Z,15.77
2022-10-18T05:37:44.209Z,15.20
2022-10-18T05:40:45.630Z,14.07
2022-10-18T05:43:47.033Z,14.73
2022-10-18T05:46:48.433Z,14.35
2022-10-18T05:49:49.833Z,14.07
2022-10-18T05:52:51.250Z,14.80
2022-10-18T05:55:52.675Z,15.43
2022-10-18T05:58:54.185Z,14.77
2022-10-18T06:01:55.614Z,15.15
2022-10-18T06:04:57.003Z,15.68
2022-10-18T06:07:58.565Z,15.07
2022-10-18T06:11:00.412Z,15.65
2022-10-18T06:14:01.897Z,16.55
2022-10-18T06:17:03.527Z,16.30
2022-10-18T06:20:05.620Z,16.00
2022-10-18T06:23:07.081Z,15.95
2022-10-18T06:26:10.870Z,14.57
2022-10-18T06:29:12.379Z,13.95
2022-10-18T06:32:13.932Z,13.57
2022-10-18T06:35:15.381Z,13.27
2022-10-18T06:38:16.808Z,14.07
2022-10-18T06:41:18.248Z,15.75
2022-10-18T06:44:20.843Z,18.05
2022-10-18T06:47:22.241Z,16.83
2022-10-18T06:50:23.783Z,16.92
2022-10-18T06:53:30.840Z,14.10
2022-10-18T06:56:32.496Z,12.18
2022-10-18T06:59:33.902Z,12.82
2022-10-18T07:02:35.357Z,12.48
2022-10-18T07:05:36.877Z,12.32
2022-10-18T07:08:39.530Z,12.68
2022-10-18T07:11:40.926Z,11.63
2022-10-18T07:14:42.344Z,11.90
2022-10-18T07:17:44.552Z,13.25
2022-10-18T07:20:45.963Z,14.82
2022-10-18T07:23:48.191Z,12.43
2022-10-18T07:26:50.129Z,10.40
2022-10-18T07:29:51.520Z,7.18
2022-10-18T07:32:52.929Z,5.70
2022-10-18T07:35:54.329Z,4.80
2022-10-18T07:38:55.974Z,4.10
2022-10-18T07:41:57.613Z,4.05
2022-10-18T07:44:59.021Z,3.83
2022-10-18T07:48:00.447Z,3.25
2022-10-18T07:51:02.300Z,3.05
2022-10-18T07:54:03.803Z,3.70
2022-10-18T07:57:05.235Z,4.22
2022-10-18T08:00:07.346Z,5.57
2022-10-18T08:03:12.970Z,7.00
2022-10-18T08:06:16.596Z,6.60
2022-10-18T08:09:18.031Z,8.60
2022-10-18T08:12:19.433Z,9.07
2022-10-18T08:15:20.853Z,10.20
2022-10-18T08:18:22.291Z,11.35
2022-10-18T08:21:23.698Z,9.32
2022-10-18T08:24:25.159Z,10.38
2022-10-18T08:27:26.648Z,9.45
2022-10-18T08:30:28.153Z,10.35
2022-10-18T08:33:29.577Z,9.65
2022-10-18T08:36:31.006Z,9.02
2022-10-18T08:39:32.429Z,7.20
2022-10-18T08:42:42.722Z,7.43
2022-10-18T08:45:44.357Z,7.32
2022-10-18T08:48:51.218Z,6.80
2022-10-18T08:51:53.911Z,6.45
2022-10-18T08:55:11.274Z,7.50
2022-10-18T08:58:20.379Z,7.10
2022-10-18T09:01:27.737Z,6.03
2022-10-18T09:04:44.292Z,4.25
2022-10-18T09:08:09.985Z,3.47
2022-10-18T09:11:23.361Z,2.70
2022-10-18T09:14:52.584Z,2.55
2022-10-18T09:18:07.141Z,2.80
2022-10-18T09:21:18.599Z,2.65
2022-10-18T09:24:34.169Z,1.85
2022-10-18T09:27:52.087Z,1.85
2022-10-18T09:31:10.818Z,2.08
2022-10-18T09:34:31.356Z,2.03
2022-10-18T09:37:34.795Z,2.30
2022-10-18T09:40:54.081Z,2.05
2022-10-18T09:44:12.954Z,2.10
2022-10-18T09:47:19.295Z,2.30
2022-10-18T09:50:29.579Z,1.55
2022-10-18T09:53:41.452Z,1.40
2022-10-18T09:57:01.039Z,1.50
2022-10-18T10:00:04.790Z,1.90
2022-10-18T10:03:11.296Z,1.92
2022-10-18T10:06:12.660Z,1.25
2022-10-18T10:09:15.935Z,1.60
2022-10-18T10:12:25.694Z,1.40
2022-10-18T10:15:31.292Z,1.80
2022-10-18T10:18:38.960Z,1.65
2022-10-18T10:21:40.417Z,1.35
2022-10-18T10:24:53.345Z,1.30
2022-10-18T10:27:54.942Z,1.60
2022-10-18T10:31:26.485Z,1.40
2022-10-18T10:34:29.433Z,2.05
2022-10-18T10:37:36.191Z,1.35
2022-10-18T10:40:48.692Z,1.27
2022-10-18T10:43:50.940Z,1.10
2022-10-18T10:46:53.947Z,1.88
2022-10-18T10:49:56.221Z,1.65
2022-10-18T10:52:58.390Z,1.35
2022-10-18T10:56:00.266Z,1.42
2022-10-18T10:59:23.335Z,1.10
2022-10-18T11:02:33.160Z,1.30
2022-10-18T11:05:44.980Z,1.17
2022-10-18T11:11:59.425Z,1.17
2022-10-18T11:15:09.794Z,1.23
2022-10-18T11:18:14.137Z,1.40
2022-10-18T11:21:31.098Z,1.30
2022-10-18T11:24:35.325Z,1.35
2022-10-18T11:27:54.889Z,1.00
2022-10-18T11:31:09.949Z,1.13
2022-10-18T11:34:40.838Z,1.00
2022-10-18T11:38:03.286Z,1.42
2022-10-18T11:41:36.925Z,1.00
2022-10-18T11:44:48.232Z,1.40
2022-10-18T11:48:02.776Z,1.00
2022-10-18T11:52:03.111Z,0.80
2022-10-18T11:55:30.362Z,1.05
2022-10-18T11:58:46.560Z,0.70
2022-10-18T12:02:38.962Z,1.00
2022-10-18T12:05:44.052Z,0.95
2022-10-18T12:08:49.641Z,0.95
2022-10-18T12:11:57.107Z,0.80
2022-10-18T12:15:05.231Z,0.95
2022-10-18T12:18:14.589Z,0.90
2022-10-18T12:21:24.549Z,1.00
2022-10-18T12:24:30.458Z,1.17
2022-10-18T12:27:40.069Z,1.17
2022-10-18T12:31:04.727Z,1.38
2022-10-18T12:34:21.762Z,1.05
2022-10-18T12:37:35.115Z,1.40
2022-10-18T12:40:49.360Z,1.00
2022-10-18T12:43:58.709Z,0.80
2022-10-18T12:47:06.265Z,1.00
2022-10-18T12:50:29.050Z,1.05
2022-10-18T12:53:31.892Z,0.98
2022-10-18T12:56:42.053Z,0.95
2022-10-18T12:59:43.940Z,1.55
2022-10-18T13:02:45.369Z,1.10
2022-10-18T13:05:52.758Z,0.80
2022-10-18T13:09:17.566Z,1.00
2022-10-18T13:12:18.926Z,1.70
2022-10-18T13:15:34.866Z,1.40
2022-10-18T13:18:59.762Z,1.00
2022-10-18T13:22:25.675Z,1.20
2022-10-18T13:25:39.652Z,1.20
2022-10-18T13:28:54.957Z,1.20
2022-10-18T13:32:01.455Z,1.23
2022-10-18T13:35:03.265Z,1.17
2022-10-18T13:38:26.892Z,1.17
2022-10-18T13:41:57.579Z,2.00
2022-10-18T13:45:30.667Z,1.20
2022-10-18T13:48:35.466Z,1.17
2022-10-18T13:52:15.057Z,1.35
2022-10-18T13:55:33.541Z,1.40
2022-10-18T13:58:53.780Z,1.27
2022-10-18T14:02:51.802Z,1.25
2022-10-18T14:06:20.512Z,1.15
2022-10-18T14:09:43.698Z,1.27
2022-10-18T14:12:51.933Z,1.20
2022-10-18T14:16:03.718Z,1.17
2022-10-18T14:19:20.671Z,1.63
2022-10-18T14:22:26.476Z,1.20
2022-10-18T14:25:27.796Z,1.23
2022-10-18T14:28:47.947Z,1.60
2022-10-18T14:31:54.509Z,0.90
2022-10-18T14:35:20.626Z,1.63
2022-10-18T14:38:18.537Z,1.00
2022-10-18T14:41:19.873Z,1.30
2022-10-18T14:44:26.056Z,1.27
2022-10-18T14:47:28.755Z,1.75
2022-10-18T14:50:30.907Z,1.17
2022-10-18T14:53:37.259Z,1.17
2022-10-18T14:56:41.289Z,1.45
2022-10-18T14:59:49.162Z,1.00
2022-10-18T15:02:50.875Z,1.35
2022-10-18T15:05:59.406Z,1.20
2022-10-18T15:09:03.132Z,1.73
2022-10-18T15:12:06.807Z,1.42
2022-10-18T15:15:16.873Z,1.27
2022-10-18T15:18:26.637Z,1.20
2022-10-18T15:21:28.537Z,1.02
2022-10-18T15:24:39.377Z,1.20
2022-10-18T15:27:52.080Z,1.42
2022-10-18T15:30:53.782Z,1.10
2022-10-18T15:34:09.799Z,1.30
2022-10-18T15:37:29.833Z,1.40
2022-10-18T15:40:35.297Z,1.23
2022-10-18T15:43:36.793Z,1.25
2022-10-18T15:46:38.970Z,1.40
2022-10-18T15:49:46.338Z,1.40
2022-10-18T15:52:47.821Z,1.20
2022-10-18T15:56:05.367Z,1.75
2022-10-18T15:59:23.324Z,1.73
2022-10-18T16:02:24.810Z,2.28
2022-10-18T16:05:26.230Z,1.65
2022-10-18T16:08:29.021Z,1.60
2022-10-18T16:11:30.412Z,1.60
2022-10-18T16:14:32.141Z,1.70
2022-10-18T16:17:33.939Z,1.63
2022-10-18T16:20:35.525Z,2.13
2022-10-18T16:23:36.934Z,1.65
2022-10-18T16:26:38.634Z,1.70
2022-10-18T16:29:40.065Z,1.67
2022-10-18T16:32:41.573Z,1.73
2022-10-18T16:35:42.977Z,1.95
2022-10-18T16:38:45.326Z,2.30
2022-10-18T16:41:47.588Z,2.67
2022-10-18T16:44:49.013Z,2.28
2022-10-18T16:47:50.431Z,2.65
2022-10-18T16:50:54.560Z,3.78
2022-10-18T16:56:57.358Z,2.65
2022-10-18T16:59:58.773Z,2.95
2022-10-18T17:03:00.250Z,2.50
2022-10-18T17:06:01.998Z,2.45
2022-10-18T17:09:03.748Z,2.70
2022-10-18T17:12:05.410Z,2.47
2022-10-18T17:15:08.173Z,2.85
2022-10-18T17:18:19.164Z,3.13
2022-10-18T17:21:21.054Z,3.70
2022-10-18T17:24:22.480Z,3.55
2022-10-18T17:27:24.144Z,3.25
2022-10-18T17:30:25.565Z,3.35
2022-10-18T17:33:26.959Z,4.00
2022-10-18T17:36:32.279Z,4.18
2022-10-18T17:39:33.922Z,3.95
2022-10-18T17:42:35.448Z,3.78
2022-10-18T17:45:37.164Z,3.97
2022-10-18T17:48:38.589Z,4.57
2022-10-18T17:51:40.069Z,4.35
2022-10-18T17:54:41.522Z,4.45
2022-10-18T17:57:43.723Z,4.15
2022-10-18T18:00:45.298Z,4.40
2022-10-18T18:03:47.423Z,5.10
2022-10-18T18:06:48.948Z,5.10
2022-10-18T18:09:50.377Z,6.15
2022-10-18T18:12:51.859Z,5.55
2022-10-18T18:15:53.352Z,4.88
2022-10-18T18:18:56.921Z,6.00
2022-10-18T18:21:58.521Z,5.93
2022-10-18T18:25:00.129Z,6.85
2022-10-18T18:28:05.236Z,5.70
2022-10-18T18:31:16.768Z,6.78
2022-10-18T18:34:19.168Z,6.00
2022-10-18T18:37:20.621Z,6.78
2022-10-18T18:40:22.091Z,7.10
2022-10-18T18:43:23.755Z,6.85
2022-10-18T18:46:27.564Z,6.07
2022-10-18T18:49:28.961Z,6.43
2022-10-18T18:52:30.567Z,6.32
2022-10-18T18:55:32.217Z,7.13
2022-10-18T18:58:38.856Z,7.10
2022-10-18T19:01:40.938Z,6.90
2022-10-18T19:04:42.368Z,8.27
2022-10-18T19:07:43.829Z,9.27
2022-10-18T19:10:45.244Z,9.02
2022-10-18T19:13:47.829Z,9.60
2022-10-18T19:16:54.250Z,9.50
2022-10-18T19:19:55.680Z,9.02
2022-10-18T19:22:57.065Z,9.23
2022-10-18T19:26:24.208Z,10.40
2022-10-18T19:29:28.640Z,9.48
2022-10-18T19:32:30.124Z,9.52
2022-10-18T19:35:31.556Z,10.20
2022-10-18T19:38:32.973Z,10.80
2022-10-18T19:41:34.472Z,11.18
2022-10-18T19:44:37.035Z,9.52
2022-10-18T19:47:38.553Z,12.23
2022-10-18T19:50:40.103Z,13.90
2022-10-18T19:53:41.509Z,13.25
2022-10-18T19:56:43.300Z,12.27
2022-10-18T19:59:44.715Z,10.35
2022-10-18T20:02:46.171Z,11.73
2022-10-18T20:05:53.411Z,10.43
2022-10-18T20:08:55.087Z,10.63
2022-10-18T20:11:56.562Z,10.07
2022-10-18T20:14:57.978Z,11.35
2022-10-18T20:17:59.391Z,11.38
2022-10-18T20:21:04.878Z,12.63
2022-10-18T20:24:06.905Z,10.65
2022-10-18T20:27:08.355Z,10.45
2022-10-18T20:30:11.394Z,9.52
2022-10-18T20:33:12.988Z,10.52
2022-10-18T20:36:17.098Z,10.50
2022-10-18T20:39:18.564Z,10.70
2022-10-18T20:42:20.021Z,11.07
2022-10-18T20:45:21.428Z,11.52
2022-10-18T20:48:22.962Z,11.93
2022-10-18T20:51:24.834Z,12.38
2022-10-18T20:54:26.339Z,12.05
2022-10-18T20:57:31.680Z,11.80
2022-10-18T21:00:35.773Z,11.55
2022-10-18T21:03:42.720Z,12.45
2022-10-18T21:06:44.266Z,11.98
2022-10-18T21:09:45.666Z,13.00
2022-10-18T21:12:47.760Z,12.50
2022-10-18T21:15:59.489Z,10.30
2022-10-18T21:19:05.833Z,11.05
2022-10-18T21:22:07.243Z,11.50
2022-10-18T21:25:08.904Z,14.25
2022-10-18T21:28:10.351Z,16.27
2022-10-18T21:31:20.751Z,19.15
2022-10-18T21:34:22.269Z,20.70
2022-10-18T21:37:23.684Z,22.80
2022-10-18T21:40:25.116Z,21.80
2022-10-18T21:43:27.043Z,21.83
2022-10-18T21:46:28.569Z,25.05
2022-10-18T21:49:29.959Z,24.40
2022-10-18T21:52:31.620Z,22.50
2022-10-18T21:55:35.823Z,21.75
2022-10-18T21:58:37.707Z,22.35
2022-10-18T22:01:40.031Z,22.10
2022-10-18T22:04:41.450Z,21.30
2022-10-18T22:07:42.839Z,21.88
2022-10-18T22:10:44.240Z,20.60
2022-10-18T22:13:46.132Z,20.02
2022-10-18T22:16:47.849Z,19.02
2022-10-18T22:19:49.232Z,18.30
2022-10-18T22:22:52.488Z,19.55
2022-10-18T22:25:53.887Z,19.73
2022-10-18T22:28:57.540Z,18.65
2022-10-18T22:31:59.025Z,18.73
2022-10-18T22:35:00.441Z,18.92
2022-10-18T22:38:01.853Z,18.38
2022-10-18T22:41:07.592Z,19.92
2022-10-18T22:44:11.481Z,18.55
2022-10-18T22:47:12.933Z,18.70
2022-10-18T22:50:14.375Z,20.38
2022-10-18T22:53:15.766Z,18.75
2022-10-18T22:56:19.617Z,20.80
2022-10-18T22:59:21.030Z,18.88
2022-10-18T23:02:22.479Z,18.88
2022-10-18T23:05:23.899Z,18.25
2022-10-18T23:08:26.377Z,18.45
2022-10-18T23:11:28.464Z,17.42
2022-10-18T23:14:29.872Z,17.10
2022-10-18T23:17:31.692Z,17.10
2022-10-18T23:20:33.434Z,16.45
2022-10-18T23:23:36.472Z,18.65
2022-10-18T23:26:37.868Z,17.88
2022-10-18T23:29:39.289Z,16.85
2022-10-18T23:32:40.705Z,17.27
2022-10-18T23:35:42.117Z,17.55
2022-10-18T23:38:44.029Z,16.60
2022-10-18T23:41:45.430Z,16.13
2022-10-18T23:44:46.836Z,16.55
2022-10-18T23:47:48.250Z,16.13
2022-10-18T23:50:49.762Z,17.52
2022-10-18T23:53:51.192Z,17.25
2022-10-18T23:56:52.581Z,17.58
2022-10-18T23:59:53.987Z,16.63
